Time;durP1;ratioP1;P1;durP2;ratioP2;P2;SDS_P1;SDS_P2;PMS_P1;PMS_P2;Temp;Humidity;BMP_temperature;BMP_pressure;BME280_temperature;BME280_humidity;BME280_pressure;Samples;Min_cycle;Max_cycle;Signal;HPM_P1;HPM_P2
2023/01/11 00:00:26;;;;;;;10.57;2.30;;;;;;;6.25;100.00;100388.72;6098269;23;20022;-81
2023/01/11 00:03:00;;;;;;;10.63;2.55;;;;;;;6.24;100.00;100392.25;6122407;23;20338;-81
2023/01/11 00:05:27;;;;;;;8.55;2.00;;;;;;;6.43;100.00;100428.53;6098520;23;20105;-82
2023/01/11 00:07:53;;;;;;;10.32;2.30;;;;;;;5.54;100.00;100260.19;6124846;23;20084;-81
2023/01/11 00:10:21;;;;;;;7.53;2.20;;;;;;;6.22;100.00;100375.63;6123458;23;20049;-81
2023/01/11 00:12:47;;;;;;;7.75;2.28;;;;;;;6.29;100.00;100389.47;6124629;23;20028;-82
2023/01/11 00:15:15;;;;;;;9.10;2.10;;;;;;;6.37;100.00;100411.13;6124287;23;20032;-81
2023/01/11 00:17:41;;;;;;;9.55;2.38;;;;;;;6.12;100.00;100358.44;6124213;23;20359;-81
2023/01/11 00:20:09;;;;;;;9.25;2.08;;;;;;;6.38;100.00;100399.72;6123106;23;20453;-81
2023/01/11 00:22:36;;;;;;;7.55;1.80;;;;;;;6.15;100.00;100362.69;6123336;23;20018;-83
2023/01/11 00:25:03;;;;;;;5.80;1.80;;;;;;;6.39;100.00;100404.06;6124319;23;20014;-82
2023/01/11 00:27:30;;;;;;;8.27;1.80;;;;;;;6.27;100.00;100378.16;6124299;23;20014;-82
2023/01/11 00:29:57;;;;;;;8.15;1.63;;;;;;;6.25;100.00;100377.31;6098589;23;20028;-82
2023/01/11 00:32:23;;;;;;;7.28;1.70;;;;;;;5.88;100.00;100303.91;6124077;23;20014;-83
2023/01/11 00:34:50;;;;;;;8.68;1.70;;;;;;;6.16;100.00;100336.38;6124644;23;20018;-83
2023/01/11 00:37:19;;;;;;;4.20;1.48;;;;;;;6.40;100.00;100365.47;6124381;23;20021;-83
2023/01/11 00:39:45;;;;;;;7.78;1.40;;;;;;;6.26;100.00;100331.72;6123937;23;20045;-83
2023/01/11 00:47:57;;;;;;;8.35;1.70;;;;;;;6.60;100.00;100361.34;6124716;23;20036;-84
2023/01/11 00:50:24;;;;;;;11.05;2.13;;;;;;;6.60;100.00;100345.56;6098479;23;20010;-83
2023/01/11 00:52:51;;;;;;;6.57;1.75;;;;;;;6.69;100.00;100357.53;6124215;23;20097;-84
2023/01/11 00:55:17;;;;;;;5.28;1.95;;;;;;;6.63;100.00;100355.97;6123837;23;20080;-84
2023/01/11 00:57:44;;;;;;;8.77;2.10;;;;;;;6.21;100.00;100270.50;6124012;23;20124;-83
2023/01/11 01:00:11;;;;;;;7.22;1.63;;;;;;;6.47;100.00;100323.16;6123301;23;20010;-83
2023/01/11 01:02:38;;;;;;;11.35;2.60;;;;;;;6.21;100.00;100273.13;6124074;23;20041;-83
2023/01/11 01:05:05;;;;;;;6.63;1.52;;;;;;;6.63;100.00;100352.47;6124223;23;20025;-83
2023/01/11 01:07:32;;;;;;;7.03;1.80;;;;;;;6.66;100.00;100342.72;6123261;23;20021;-83
2023/01/11 01:09:58;;;;;;;7.97;1.73;;;;;;;6.56;100.00;100325.50;6124291;23;20432;-84
2023/01/11 01:15:10;;;;;;;8.80;1.70;;;;;;;6.69;100.00;100345.25;6123285;23;20018;-82
2023/01/11 01:17:36;;;;;;;6.10;1.67;;;;;;;6.56;100.00;100317.63;6124128;23;20017;-82
2023/01/11 01:20:03;;;;;;;4.15;1.52;;;;;;;6.64;100.00;100312.94;6123961;23;20029;-83
2023/01/11 01:22:30;;;;;;;8.30;1.90;;;;;;;6.68;100.00;100327.72;6123506;23;20025;-81
2023/01/11 01:24:57;;;;;;;6.18;1.65;;;;;;;6.53;100.00;100311.56;6123718;23;20025;-83
2023/01/11 01:27:24;;;;;;;5.20;1.92;;;;;;;6.62;100.00;100313.91;6123959;23;20014;-82
2023/01/11 01:29:50;;;;;;;7.10;1.80;;;;;;;6.54;100.00;100319.44;6123275;23;20014;-81
2023/01/11 01:32:17;;;;;;;8.55;1.45;;;;;;;6.54;100.00;100308.03;6123363;23;20409;-83
2023/01/11 01:34:43;;;;;;;7.65;1.50;;;;;;;6.69;100.00;100342.63;6123272;23;20017;-84
2023/01/11 01:37:10;;;;;;;5.28;1.48;;;;;;;6.61;100.00;100318.31;6123746;23;20024;-82
2023/01/11 01:39:37;;;;;;;6.15;1.60;;;;;;;6.48;100.00;100301.19;6123510;23;20097;-83
2023/01/11 01:42:04;;;;;;;6.78;1.80;;;;;;;6.22;100.00;100267.84;6124718;23;20040;-82
2023/01/11 01:44:50;;;;;;;6.00;1.80;;;;;;;6.68;100.00;100342.66;6124242;23;20018;-83
2023/01/11 01:47:23;;;;;;;5.85;1.50;;;;;;;6.26;100.00;100273.88;6098561;23;20029;-82
2023/01/11 01:49:50;;;;;;;8.40;1.63;;;;;;;6.75;100.00;100336.31;6123919;23;20049;-81
2023/01/11 01:52:17;;;;;;;4.60;1.30;;;;;;;6.50;100.00;100294.13;6124032;23;20452;-82
2023/01/11 01:54:46;;;;;;;5.85;1.58;;;;;;;6.72;100.00;100346.94;6123821;23;20113;-82
2023/01/11 01:57:20;;;;;;;5.82;1.90;;;;;;;6.56;100.00;100330.75;6123593;23;20014;-83
2023/01/11 01:59:50;;;;;;;6.25;1.88;;;;;;;6.25;100.00;100266.88;6123885;23;20029;-81
2023/01/11 02:02:20;;;;;;;6.82;1.73;;;;;;;6.32;100.00;100281.53;6124794;23;20322;-81
2023/01/11 02:04:48;;;;;;;7.95;1.88;;;;;;;6.55;100.00;100309.75;6125586;23;20018;-82
2023/01/11 02:07:21;;;;;;;6.97;1.95;;;;;;;6.36;100.00;100271.78;6124706;23;20025;-81
2023/01/11 02:10:09;;;;;;;7.00;1.90;;;;;;;6.72;100.00;100320.63;6136722;23;20040;-83
2023/01/11 02:13:00;;;;;;;6.90;1.88;;;;;;;6.49;100.00;100287.13;6135110;23;20503;-81
2023/01/11 02:15:28;;;;;;;6.10;1.98;;;;;;;6.47;100.00;100280.19;6132079;23;20475;-82
2023/01/11 02:17:54;;;;;;;7.22;1.80;;;;;;;6.63;100.00;100311.22;6131798;23;20082;-81
2023/01/11 02:20:30;;;;;;;10.25;1.95;;;;;;;6.64;100.00;100312.94;6128619;23;20441;-81
2023/01/11 02:23:29;;;;;;;5.65;2.00;;;;;;;6.67;100.00;100307.59;6131592;23;20025;-82
2023/01/11 02:26:19;;;;;;;6.95;2.08;;;;;;;6.69;100.00;100295.25;6102033;23;20026;-81
2023/01/11 02:29:34;;;;;;;5.63;1.83;;;;;;;6.73;100.00;100289.91;6126076;23;20346;-83
2023/01/11 02:32:21;;;;;;;5.82;1.90;;;;;;;6.76;100.00;100277.50;6114296;23;20349;-82
2023/01/11 02:35:06;;;;;;;8.70;1.80;;;;;;;6.77;100.00;100283.63;6126229;23;20018;-82
2023/01/11 02:37:40;;;;;;;6.68;2.42;;;;;;;6.52;100.00;100237.06;6126230;23;20025;-82
2023/01/11 02:40:25;;;;;;;11.07;2.40;;;;;;;6.61;100.00;100239.38;6126864;23;20042;-82
2023/01/11 02:45:51;;;;;;;9.25;2.10;;;;;;;5.83;100.00;100122.69;6124036;23;20022;-82
2023/01/11 02:48:30;;;;;;;6.82;2.55;;;;;;;6.88;100.00;100279.72;6124645;23;20360;-82
2023/01/11 02:51:25;;;;;;;8.10;1.80;;;;;;;6.91;100.00;100287.50;6124950;23;20032;-83
2023/01/11 02:54:01;;;;;;;5.57;2.03;;;;;;;6.86;100.00;100285.94;6123781;23;20050;-83
2023/01/11 02:56:32;;;;;;;7.35;2.00;;;;;;;6.82;100.00;100277.28;6123876;23;20040;-81
2023/01/11 02:59:00;;;;;;;5.95;2.05;;;;;;;6.81;100.00;100272.06;6123665;23;20018;-82
2023/01/11 03:01:26;;;;;;;6.78;2.40;;;;;;;6.78;100.00;100259.84;6125724;23;20413;-82
2023/01/11 03:03:53;;;;;;;5.32;1.95;;;;;;;6.54;100.00;100218.59;6125162;23;20535;-81
2023/01/11 03:06:26;;;;;;;9.93;2.30;;;;;;;6.82;100.00;100244.84;6099947;23;20090;-82
2023/01/11 03:09:11;;;;;;;6.15;2.00;;;;;;;6.80;100.00;100244.03;6124528;23;20397;-81
2023/01/11 03:15:20;;;;;;;5.97;2.15;;;;;;;6.81;100.00;100237.84;6123214;23;20029;-80
2023/01/11 03:17:59;;;;;;;7.10;2.05;;;;;;;6.85;100.00;100235.06;6124597;23;20018;-82
2023/01/11 03:20:29;;;;;;;7.65;2.20;;;;;;;6.17;100.00;100116.38;6126271;23;20101;-80
2023/01/11 03:23:14;;;;;;;8.95;2.08;;;;;;;6.84;100.00;100225.44;6125870;23;20426;-81
2023/01/11 03:25:48;;;;;;;5.57;2.00;;;;;;;6.74;100.00;100189.84;6125437;23;20056;-80
2023/01/11 03:28:42;;;;;;;8.50;2.15;;;;;;;6.91;100.00;100220.84;6125211;23;20311;-81
2023/01/11 03:31:20;;;;;;;3.03;1.73;;;;;;;6.78;100.00;100199.34;6125437;23;20014;-84
2023/01/11 03:34:18;;;;;;;6.03;2.03;;;;;;;6.89;100.00;100209.50;6125225;23;20472;-83
2023/01/11 03:37:10;;;;;;;7.22;2.00;;;;;;;6.91;100.00;100192.75;6125925;23;20017;-82
2023/01/11 03:39:45;;;;;;;5.10;1.75;;;;;;;6.84;100.00;100164.06;6126275;23;20017;-82
2023/01/11 03:42:15;;;;;;;5.30;1.52;;;;;;;6.96;100.00;100190.78;6126510;23;20013;-83
2023/01/11 03:44:45;;;;;;;5.70;1.88;;;;;;;6.92;100.00;100175.19;6126246;23;20013;-83
2023/01/11 03:47:14;;;;;;;10.43;2.00;;;;;;;6.88;100.00;100178.84;6127031;23;20018;-83
2023/01/11 03:49:58;;;;;;;6.30;1.52;;;;;;;7.08;100.00;100201.84;6127045;23;20456;-82
2023/01/11 03:52:30;;;;;;;5.03;1.60;;;;;;;7.06;100.00;100193.97;6131958;23;20065;-82
2023/01/11 03:54:59;;;;;;;7.10;1.80;;;;;;;7.16;100.00;100192.72;6138821;23;20040;-82
2023/01/11 03:57:32;;;;;;;3.83;1.55;;;;;;;7.00;100.00;100168.72;6142795;23;20052;-81
2023/01/11 03:59:59;;;;;;;4.78;1.95;;;;;;;7.16;100.00;100195.34;6146220;23;20073;-81
2023/01/11 04:02:34;;;;;;;5.72;1.80;;;;;;;6.86;100.00;100122.75;6141984;23;20496;-83
2023/01/11 04:05:02;;;;;;;5.95;1.90;;;;;;;7.01;100.00;100143.25;6143522;23;20078;-83
2023/01/11 04:07:29;;;;;;;4.68;1.65;;;;;;;7.18;100.00;100168.97;6145938;23;20069;-83
2023/01/11 04:09:57;;;;;;;6.40;1.90;;;;;;;6.85;100.00;100116.63;6145047;23;20074;-83
2023/01/11 04:12:24;;;;;;;4.35;2.20;;;;;;;7.20;100.00;100175.03;6146123;23;20028;-82
2023/01/11 04:14:51;;;;;;;6.28;2.10;;;;;;;7.05;100.00;100160.66;6145550;23;20101;-83
2023/01/11 04:17:18;;;;;;;8.02;2.13;;;;;;;7.16;100.00;100173.44;6145032;23;20014;-82
2023/01/11 04:19:45;;;;;;;6.25;2.00;;;;;;;7.05;100.00;100155.41;6127380;23;20500;-83
2023/01/11 04:22:11;;;;;;;5.18;1.60;;;;;;;7.18;100.00;100166.34;6124422;23;20061;-81
2023/01/11 04:24:38;;;;;;;6.18;1.73;;;;;;;7.17;100.00;100157.59;6124675;23;20086;-82
2023/01/11 04:27:04;;;;;;;5.55;1.70;;;;;;;6.95;100.00;100101.34;6122384;23;20028;-81
2023/01/11 04:29:31;;;;;;;5.05;1.85;;;;;;;6.74;100.00;100060.03;6099369;23;20025;-82
2023/01/11 04:31:57;;;;;;;4.85;1.73;;;;;;;6.78;100.00;100072.16;6124907;23;20487;-82
2023/01/11 04:34:24;;;;;;;7.68;2.25;;;;;;;7.27;100.00;100137.88;6124956;23;20040;-80
2023/01/11 04:36:50;;;;;;;3.17;2.20;;;;;;;6.86;100.00;100062.22;6125331;23;20022;-81
2023/01/11 04:39:17;;;;;;;3.35;2.20;;;;;;;7.20;100.00;100123.25;6124955;23;20029;-82
2023/01/11 04:44:28;;;;;;;6.60;2.95;;;;;;;7.24;100.00;100140.63;6124601;23;20029;-79
2023/01/11 04:46:55;;;;;;;9.00;3.17;;;;;;;6.73;100.00;100059.19;6122103;23;20018;-79
2023/01/11 04:49:22;;;;;;;9.20;2.80;;;;;;;6.71;100.00;100049.63;6124049;23;20028;-80
2023/01/11 04:51:48;;;;;;;6.28;2.97;;;;;;;6.63;100.00;100042.84;6122766;23;20479;-79
2023/01/11 04:54:15;;;;;;;8.52;3.85;;;;;;;6.81;100.00;100067.63;6123800;23;20018;-80
2023/01/11 04:56:41;;;;;;;3.67;2.80;;;;;;;7.10;100.00;100120.97;6124009;23;20333;-80
2023/01/11 04:59:08;;;;;;;6.75;2.97;;;;;;;7.08;100.00;100115.81;6124710;23;20085;-80
2023/01/11 05:01:35;;;;;;;7.50;3.35;;;;;;;6.41;100.00;99991.97;6123541;23;20766;-79
2023/01/11 05:04:01;;;;;;;5.15;2.78;;;;;;;6.50;100.00;100007.41;6122329;23;20034;-81
2023/01/11 05:06:28;;;;;;;5.38;3.10;;;;;;;6.86;100.00;100067.47;6098680;23;20058;-81
2023/01/11 05:08:54;;;;;;;4.28;2.78;;;;;;;7.10;100.00;100071.81;6123652;23;20469;-80
2023/01/11 05:11:21;;;;;;;5.72;3.10;;;;;;;7.33;100.00;100107.81;6123311;23;20017;-82
2023/01/11 05:13:47;;;;;;;10.43;3.08;;;;;;;7.49;100.00;100113.34;6124054;23;20026;-81
2023/01/11 05:16:22;;;;;;;6.65;3.00;;;;;;;6.86;100.00;100010.44;6124111;23;20022;-82
2023/01/11 05:18:52;;;;;;;5.80;3.05;;;;;;;7.55;100.00;100114.00;6123585;23;20120;-81
2023/01/11 05:21:23;;;;;;;7.27;2.73;;;;;;;7.27;100.00;100069.41;6123314;23;20018;-81
2023/01/11 05:23:49;;;;;;;4.97;2.90;;;;;;;7.64;100.00;100118.03;6122688;23;20029;-80
2023/01/11 05:26:24;;;;;;;6.97;3.30;;;;;;;7.65;100.00;100120.59;6122370;23;20029;-81
2023/01/11 05:28:51;;;;;;;3.97;3.10;;;;;;;7.34;100.00;100078.78;6122805;23;20289;-82
2023/01/11 05:31:18;;;;;;;5.28;3.38;;;;;;;7.36;100.00;100061.16;6122568;23;20021;-80
2023/01/11 05:33:44;;;;;;;7.93;3.35;;;;;;;7.66;100.00;100110.94;6122810;23;20018;-81
2023/01/11 05:36:17;;;;;;;9.57;3.28;;;;;;;7.70;100.00;100102.00;6121797;23;20029;-79
2023/01/11 05:38:48;;;;;;;6.60;2.85;;;;;;;7.79;100.00;100106.03;6123253;23;20028;-80
2023/01/11 05:41:16;;;;;;;7.82;2.95;;;;;;;7.76;100.00;100109.63;6122941;23;20124;-81
2023/01/11 05:46:31;;;;;;;8.82;2.75;;;;;;;7.49;100.00;100029.91;6122809;23;20029;-80
2023/01/11 05:48:58;;;;;;;7.68;3.10;;;;;;;7.77;100.00;100076.22;6122851;23;20032;-80
2023/01/11 05:51:25;;;;;;;7.63;2.50;;;;;;;7.72;100.00;100065.84;6121721;23;20021;-81
2023/01/11 05:53:52;;;;;;;7.43;3.20;;;;;;;7.84;100.00;100099.66;6122182;23;20471;-81
2023/01/11 05:56:19;;;;;;;4.30;2.60;;;;;;;7.80;100.00;100082.25;6123064;23;20018;-81
2023/01/11 05:58:49;;;;;;;5.00;2.70;;;;;;;7.88;100.00;100095.94;6123159;23;20101;-80
2023/01/11 06:01:19;;;;;;;5.20;2.38;;;;;;;7.24;100.00;99987.03;6122510;23;20025;-82
2023/01/11 06:03:46;;;;;;;2.92;1.92;;;;;;;7.29;100.00;99977.16;6122091;23;20022;-82
2023/01/11 06:06:14;;;;;;;5.03;2.42;;;;;;;7.95;100.00;100097.44;6122678;23;20018;-79
2023/01/11 06:08:41;;;;;;;3.50;2.33;;;;;;;7.19;100.00;99968.78;6120963;23;20022;-80
2023/01/11 06:11:07;;;;;;;5.20;2.40;;;;;;;7.31;100.00;99986.72;6122111;23;20022;-81
2023/01/11 06:13:34;;;;;;;7.45;2.20;;;;;;;7.83;100.00;100079.47;6120437;23;20014;-82
2023/01/11 06:16:03;;;;;;;3.38;2.08;;;;;;;7.92;100.00;100087.00;6121289;23;20018;-81
2023/01/11 06:18:33;;;;;;;4.22;2.30;;;;;;;7.99;100.00;100093.75;6121809;23;20580;-81
2023/01/11 06:21:00;;;;;;;5.07;2.47;;;;;;;7.54;100.00;100016.56;6122122;23;20024;-81
2023/01/11 06:23:28;;;;;;;6.68;2.50;;;;;;;7.93;100.00;100082.59;6121144;23;20036;-81
2023/01/11 06:25:55;;;;;;;4.57;3.15;;;;;;;7.70;100.00;100021.16;6123322;23;20022;-81
2023/01/11 06:28:21;;;;;;;8.13;3.30;;;;;;;7.90;100.00;100059.84;6122711;23;20712;-80
2023/01/11 06:30:52;;;;;;;9.00;3.35;;;;;;;7.57;100.00;100021.69;6121961;23;20018;-80
2023/01/11 06:33:20;;;;;;;9.30;3.67;;;;;;;7.64;100.00;100028.44;6122061;23;20516;-80
2023/01/11 06:35:46;;;;;;;5.95;3.58;;;;;;;7.69;100.00;100044.94;6096031;23;20029;-80
2023/01/11 06:38:15;;;;;;;7.40;4.00;;;;;;;7.04;100.00;99933.41;6122775;23;20360;-81
2023/01/11 06:40:42;;;;;;;10.57;3.80;;;;;;;7.74;100.00;100048.22;6122725;23;20097;-81
2023/01/11 06:43:09;;;;;;;9.45;4.20;;;;;;;7.54;100.00;100016.56;6123722;23;20021;-80
2023/01/11 06:45:38;;;;;;;10.18;4.55;;;;;;;7.54;100.00;100021.84;6122091;23;20125;-79
2023/01/11 06:48:05;;;;;;;8.38;4.93;;;;;;;7.42;100.00;100002.09;6123690;23;20022;-83
2023/01/11 06:50:32;;;;;;;8.20;4.63;;;;;;;7.09;100.00;99945.50;6121144;23;20053;-82
2023/01/11 06:53:02;;;;;;;9.30;4.70;;;;;;;7.70;100.00;100036.09;6122593;23;20018;-81
2023/01/11 06:55:30;;;;;;;8.63;4.88;;;;;;;7.75;100.00;100032.34;6097313;23;20022;-82
2023/01/11 06:57:56;;;;;;;7.30;4.47;;;;;;;6.25;100.00;99794.47;6126286;23;20013;-82
2023/01/11 07:00:23;;;;;;;9.82;5.13;;;;;;;7.30;100.00;99966.56;6126281;23;20479;-81
2023/01/11 07:02:50;;;;;;;8.98;4.80;;;;;;;7.21;100.00;99951.16;6123856;23;20053;-81
2023/01/11 07:05:17;;;;;;;9.50;5.90;;;;;;;7.55;100.00;100005.09;6126521;23;20073;-81
2023/01/11 07:07:45;;;;;;;9.43;5.38;;;;;;;7.60;100.00;100006.59;6127543;23;20037;-81
2023/01/11 07:10:15;;;;;;;7.70;4.88;;;;;;;7.33;100.00;99970.84;6127852;23;20036;-82
2023/01/11 07:12:41;;;;;;;6.88;5.25;;;;;;;7.73;100.00;100043.84;6127723;23;20014;-82
2023/01/11 07:15:09;;;;;;;11.07;5.30;;;;;;;6.17;100.00;99775.47;6131459;23;20088;-82
2023/01/11 07:17:37;;;;;;;8.57;5.20;;;;;;;7.76;100.00;100025.28;6132403;23;20301;-81
2023/01/11 07:20:05;;;;;;;7.13;5.03;;;;;;;7.14;100.00;99918.06;6129436;23;20025;-80
2023/01/11 07:22:34;;;;;;;9.25;5.68;;;;;;;6.11;100.00;99736.31;6130300;23;20572;-82
2023/01/11 07:25:02;;;;;;;10.75;5.70;;;;;;;7.72;100.00;100028.97;6132401;23;20022;-79
2023/01/11 07:27:28;;;;;;;10.23;6.18;;;;;;;6.28;100.00;99772.44;6130548;23;20022;-82
2023/01/11 07:29:58;;;;;;;11.00;6.63;;;;;;;7.75;100.00;100007.75;6133281;23;20074;-80
2023/01/11 07:32:27;;;;;;;8.77;5.75;;;;;;;7.34;100.00;99962.03;6139274;23;20433;-82
2023/01/11 07:34:55;;;;;;;9.27;5.70;;;;;;;6.27;100.00;99762.84;6136600;23;20022;-82
2023/01/11 07:37:26;;;;;;;6.47;5.20;;;;;;;6.10;100.00;99744.25;6140611;23;20101;-80
2023/01/11 07:39:55;;;;;;;6.45;4.90;;;;;;;7.82;100.00;100026.81;6145848;23;20025;-81
2023/01/11 07:45:13;;;;;;;6.45;5.15;;;;;;;7.10;100.00;99937.53;6145513;23;20026;-81
2023/01/11 07:47:43;;;;;;;10.43;5.63;;;;;;;5.90;100.00;99721.38;6145743;23;20049;-82
2023/01/11 07:50:13;;;;;;;7.30;5.55;;;;;;;6.21;100.00;99781.47;6145946;23;20053;-81
2023/01/11 07:52:52;;;;;;;8.02;5.13;;;;;;;6.27;100.00;99782.09;6143773;23;20018;-81
2023/01/11 07:55:20;;;;;;;7.85;5.30;;;;;;;6.32;100.00;99780.13;6140918;23;20022;-81
2023/01/11 07:57:49;;;;;;;7.10;5.10;;;;;;;6.91;100.00;99858.47;6144465;23;20014;-81
2023/01/11 08:00:17;;;;;;;7.25;5.20;;;;;;;7.58;100.00;99975.97;6144121;23;20025;-82
2023/01/11 08:02:49;;;;;;;10.63;6.55;;;;;;;7.53;100.00;99967.41;6118210;23;20038;-81
2023/01/11 08:05:20;;;;;;;10.05;5.45;;;;;;;6.33;100.00;99765.22;6143775;23;20022;-83
2023/01/11 08:07:47;;;;;;;;;;;;;;;7.93;100.00;100035.13;6142179;23;20062;-81
2023/01/11 08:10:14;;;;;;;8.82;4.97;;;;;;;7.95;100.00;100049.13;6139652;23;19916;-81
2023/01/11 08:15:27;;;;;;;8.52;5.30;;;;;;;6.29;100.00;99755.75;6141250;23;20048;-81
2023/01/11 08:17:54;;;;;;;8.20;5.30;;;;;;;7.03;100.00;99886.06;6132541;23;20073;-82
2023/01/11 08:20:22;;;;;;;9.65;5.55;;;;;;;7.32;100.00;99942.81;6101027;23;20462;-82
2023/01/11 08:22:48;;;;;;;7.95;5.70;;;;;;;7.80;100.00;100008.44;6126663;23;20044;-80
2023/01/11 08:25:15;;;;;;;9.15;5.82;;;;;;;7.22;100.00;99910.72;6127408;23;20053;-80
2023/01/11 08:27:42;;;;;;;7.70;5.50;;;;;;;7.93;100.00;100024.59;6133334;23;20088;-81
2023/01/11 08:30:09;;;;;;;8.50;5.97;;;;;;;7.26;100.00;99885.97;6140590;23;20070;-81
2023/01/11 08:32:36;;;;;;;8.38;6.60;;;;;;;7.49;100.00;99918.41;6139884;23;20029;-80
2023/01/11 08:35:03;;;;;;;7.72;5.80;;;;;;;6.32;100.00;99742.47;6139731;23;20033;-82
2023/01/11 08:37:31;;;;;;;14.38;6.30;;;;;;;8.09;100.00;100015.97;6141830;23;20026;-81
2023/01/11 08:39:58;;;;;;;8.50;5.88;;;;;;;7.97;100.00;99995.41;6141407;23;20030;-81
2023/01/11 08:42:25;;;;;;;10.35;5.82;;;;;;;7.47;100.00;99913.19;6131913;23;20014;-80
2023/01/11 08:44:54;;;;;;;11.13;6.53;;;;;;;7.57;100.00;99927.69;6137193;23;20053;-80
2023/01/11 08:47:21;;;;;;;10.02;5.88;;;;;;;6.50;100.00;99744.34;6135934;23;20100;-81
2023/01/11 08:49:49;;;;;;;8.50;5.63;;;;;;;7.53;100.00;99926.13;6142584;23;20089;-80
2023/01/11 08:52:16;;;;;;;8.73;5.53;;;;;;;7.53;100.00;99931.38;6142060;23;20018;-80
2023/01/11 08:54:42;;;;;;;13.32;6.28;;;;;;;7.89;100.00;99978.19;6138585;23;20045;-80
2023/01/11 08:57:09;;;;;;;10.60;6.22;;;;;;;8.22;100.00;100025.97;6138549;23;20073;-82
2023/01/11 08:59:36;;;;;;;8.82;5.45;;;;;;;7.88;100.00;99977.31;6143820;23;20022;-82
2023/01/11 09:02:05;;;;;;;8.75;5.45;;;;;;;6.50;100.00;99730.34;6142272;23;20045;-82
2023/01/11 09:04:32;;;;;;;10.55;6.45;;;;;;;6.59;100.00;99767.69;6141372;23;20026;-82
2023/01/11 09:07:00;;;;;;;14.25;7.28;;;;;;;6.71;100.00;99781.25;6137724;23;20061;-83
2023/01/11 09:09:27;;;;;;;12.27;7.07;;;;;;;6.44;100.00;99726.22;6134606;23;20475;-82
2023/01/11 09:11:59;;;;;;;11.23;6.55;;;;;;;8.08;100.00;99992.28;6135701;23;20097;-81
2023/01/11 09:14:28;;;;;;;13.77;7.10;;;;;;;6.85;100.00;99805.22;6136130;23;20085;-82
2023/01/11 09:16:56;;;;;;;11.75;6.47;;;;;;;6.65;100.00;99754.25;6110104;23;20111;-82
2023/01/11 09:19:23;;;;;;;10.38;7.05;;;;;;;8.08;100.00;99981.75;6131772;23;20025;-83
2023/01/11 09:21:50;;;;;;;13.23;7.70;;;;;;;7.13;100.00;99816.31;6130621;23;20028;-82
2023/01/11 09:24:17;;;;;;;12.82;7.32;;;;;;;7.70;100.00;99928.91;6133191;23;20060;-83
2023/01/11 09:26:44;;;;;;;11.98;7.05;;;;;;;7.24;100.00;99843.03;6134464;23;20021;-84
2023/01/11 09:29:11;;;;;;;10.65;7.10;;;;;;;7.22;100.00;99836.13;6140172;23;20030;-81
2023/01/11 09:31:38;;;;;;;10.63;7.75;;;;;;;7.44;100.00;99867.69;6145492;23;20114;-82
2023/01/11 09:34:07;;;;;;;8.38;6.60;;;;;;;7.79;100.00;99930.28;6143194;23;20066;-82
2023/01/11 09:36:35;;;;;;;8.98;6.43;;;;;;;7.98;100.00;99964.63;6142332;23;20073;-81
2023/01/11 09:39:07;;;;;;;10.63;6.00;;;;;;;7.48;100.00;99879.81;6133291;23;20528;-82
2023/01/11 09:42:00;;;;;;;9.77;6.38;;;;;;;8.39;100.00;100028.78;6134127;23;20631;-83
2023/01/11 09:44:28;;;;;;;8.82;6.13;;;;;;;8.04;100.00;99978.38;6135022;23;20025;-81
2023/01/11 09:47:24;;;;;;;8.98;6.50;;;;;;;8.42;100.00;100033.94;6129641;23;20028;-82
2023/01/11 09:49:56;;;;;;;7.63;5.53;;;;;;;8.02;100.00;99967.06;6129337;23;20499;-81
2023/01/11 09:52:31;;;;;;;7.93;5.90;;;;;;;8.35;100.00;100027.19;6128187;23;20369;-82
2023/01/11 09:55:00;;;;;;;8.60;5.30;;;;;;;7.97;100.00;99965.53;6128421;23;20206;-82
2023/01/11 09:57:46;;;;;;;7.00;5.18;;;;;;;8.47;100.00;100037.22;6128818;23;20053;-81
2023/01/11 10:00:26;;;;;;;6.22;4.65;;;;;;;8.49;100.00;100043.31;6130108;23;21745;-82
2023/01/11 10:03:23;;;;;;;6.15;4.50;;;;;;;8.47;100.00;100031.94;6125637;23;20105;-81
2023/01/11 10:06:12;;;;;;;6.25;4.93;;;;;;;8.46;100.00;100026.75;6122369;23;20028;-80
2023/01/11 10:08:48;;;;;;;4.85;4.20;;;;;;;8.55;100.00;100031.59;6123230;23;20057;-80
2023/01/11 10:12:03;;;;;;;5.22;4.35;;;;;;;8.58;100.00;100034.09;6123475;23;20033;-82
2023/01/11 10:15:07;;;;;;;5.35;4.47;;;;;;;8.59;100.00;100028.75;6123253;23;20025;-81
2023/01/11 10:18:33;;;;;;;5.40;4.47;;;;;;;8.60;100.00;100022.56;6123650;23;20109;-81
2023/01/11 10:21:28;;;;;;;5.15;4.35;;;;;;;8.24;100.00;99966.97;6123355;23;20033;-81
2023/01/11 10:24:01;;;;;;;6.60;4.25;;;;;;;8.66;100.00;100026.69;6122666;23;20022;-80
2023/01/11 10:26:38;;;;;;;6.00;4.70;;;;;;;8.54;100.00;100004.34;6123475;23;20077;-78
2023/01/11 10:32:24;;;;;;;6.03;4.22;;;;;;;8.73;100.00;100029.00;6122820;23;20178;-81
2023/01/11 10:34:59;;;;;;;6.93;4.43;;;;;;;8.69;100.00;100027.41;6121544;23;20018;-81
2023/01/11 10:37:49;;;;;;;5.57;3.80;;;;;;;8.77;100.00;100035.84;6124023;23;20018;-81
2023/01/11 10:43:20;;;;;;;5.20;4.00;;;;;;;8.24;100.00;99951.13;6123392;23;20029;-80
2023/01/11 10:46:17;;;;;;;4.75;4.00;;;;;;;8.55;100.00;100011.34;6123341;23;20101;-80
2023/01/11 10:48:45;;;;;;;6.25;5.00;;;;;;;8.77;100.00;100048.19;6113076;23;20105;-80
2023/01/11 10:51:31;;;;;;;4.32;3.70;;;;;;;8.78;100.00;100052.56;6126128;23;20111;-81
2023/01/11 10:54:12;;;;;;;6.47;3.67;;;;;;;8.75;100.00;100043.00;6124843;23;20018;-80
2023/01/11 10:57:17;;;;;;;5.50;3.95;;;;;;;8.76;100.00;100063.19;6123628;23;20022;-80
2023/01/11 11:00:03;;;;;;;4.45;4.05;;;;;;;8.72;100.00;100069.53;6128468;23;20017;-80
2023/01/11 11:02:58;;;;;;;8.02;4.88;;;;;;;8.70;100.00;100074.00;6131267;23;20038;-80
2023/01/11 11:05:45;;;;;;;7.10;5.38;;;;;;;8.73;100.00;100049.25;6141852;23;20029;-81
2023/01/11 11:08:27;;;;;;;7.75;5.93;;;;;;;8.75;100.00;100061.47;6118033;23;20024;-80
2023/01/11 11:11:22;;;;;;;7.65;4.72;;;;;;;8.78;100.00;100056.06;6143659;23;20021;-81
2023/01/11 11:14:18;;;;;;;4.57;3.65;;;;;;;8.79;100.00;100049.00;6134415;23;20052;-80
2023/01/11 11:17:11;;;;;;;5.28;3.88;;;;;;;8.86;100.00;100047.78;6144597;23;20098;-81
2023/01/11 11:19:38;;;;;;;7.68;4.78;;;;;;;8.76;100.00;100010.38;6106151;23;20021;-80
2023/01/11 11:22:10;;;;;;;7.07;4.55;;;;;;;8.89;100.00;100009.81;6130352;23;20022;-80
2023/01/11 11:25:02;;;;;;;6.53;4.45;;;;;;;8.68;100.00;99948.28;6128265;23;20041;-80
2023/01/11 11:27:39;;;;;;;5.65;4.18;;;;;;;9.02;100.00;99997.75;6100879;23;20361;-80
2023/01/11 11:30:11;;;;;;;4.03;3.55;;;;;;;9.26;100.00;100030.94;6129569;23;20382;-81
2023/01/11 11:32:40;;;;;;;9.05;4.75;;;;;;;9.34;100.00;100028.78;6125373;23;20024;-81
2023/01/11 11:35:31;;;;;;;4.90;4.00;;;;;;;9.47;100.00;100027.25;6125457;23;20018;-83
2023/01/11 11:37:57;;;;;;;5.57;4.32;;;;;;;9.31;100.00;99981.38;6124396;23;20500;-80
2023/01/11 11:40:30;;;;;;;6.53;4.22;;;;;;;9.55;100.00;100008.41;6126514;23;20018;-82
2023/01/11 11:43:21;;;;;;;6.85;4.80;;;;;;;9.69;100.00;100015.66;6126483;23;20447;-80
2023/01/11 11:45:50;;;;;;;7.35;5.80;;;;;;;9.64;100.00;99999.16;6126567;23;20109;-81
2023/01/11 11:48:17;;;;;;;7.93;4.78;;;;;;;9.52;100.00;99970.69;6126553;23;20026;-81
2023/01/11 11:50:45;;;;;;;11.15;4.45;;;;;;;9.84;100.00;100012.25;6127581;23;20524;-81
2023/01/11 11:53:24;;;;;;;11.30;5.18;;;;;;;9.84;100.00;100004.31;6125820;23;20018;-81
2023/01/11 11:55:51;;;;;;;8.05;4.22;;;;;;;9.70;100.00;99977.72;6133447;23;20022;-81
2023/01/11 11:58:21;;;;;;;5.95;3.13;;;;;;;9.53;100.00;99938.91;6130711;23;20602;-81
2023/01/11 12:00:50;;;;;;;7.72;3.70;;;;;;;9.66;100.00;99958.50;6128798;23;20022;-81
2023/01/11 12:03:29;;;;;;;6.00;4.10;;;;;;;10.17;100.00;100025.56;6125841;23;20104;-80
2023/01/11 12:06:01;;;;;;;11.07;4.65;;;;;;;9.89;100.00;99977.66;6125466;23;20032;-82
2023/01/11 12:08:31;;;;;;;8.50;4.70;;;;;;;10.00;100.00;99999.97;6124799;23;20021;-81
2023/01/11 12:11:04;;;;;;;6.35;2.90;;;;;;;10.00;100.00;100023.78;6124909;23;20018;-81
2023/01/11 12:13:37;;;;;;;6.05;3.28;;;;;;;9.64;100.00;99989.44;6125104;23;20022;-83
2023/01/11 12:16:19;;;;;;;4.25;2.70;;;;;;;9.84;100.00;100020.19;6125553;23;20018;-83
2023/01/11 12:18:46;;;;;;;2.75;1.75;;;;;;;9.93;100.00;100043.50;6125338;23;20041;-81
2023/01/11 12:21:22;;;;;;;2.85;1.85;;;;;;;9.74;100.00;100025.09;6125239;23;20511;-82